Архив погоды в Калининграде

Метеограмма Калининград
Среда, 14 Ноября
Время местн. Темп Ветер Видим Явления Облачность нижн/средн/верх Атм. давл. Влжн Точка росы ВНГО R Сост. почвы Tg s
Напр Скр Прв ур.ст ур.м изм
20:00 +9.5° З,С-З 1 2 4 км дымка преимущественно облачно 769 771 +0.9 91% +8.1° 1 км 1 - - -
17:00 +10° З,С-З 1 3 4 км дымка облачно 768 770 +1.3 87% +7.9° 1 км - - - -
14:00 +10.9° С-З 2 4 10 км небо без изменений {ливневые осадки} преимущественно облачно 767 769 +1.1 82% +8° 1 км - - - -
11:00 +9.7° З 1 3 4 км дымка {ливневые осадки} преимущественно облачно 766 768 +1 94% +8.8° 1 км - - - -
08:00 +8.3° З,С-З 1 3 4 км слабый ливневый дождь облачно 765 767 +0.8 96% +7.7° 600 м 16 Влажная (без луж) - -
05:00 +8.6° З 1 3 4 км слабый ливневый дождь облачно 764 766 +0.4 97% +8.2° 1 км - - - -
02:00 +9° З 1 4 4 км слабый ливневый дождь облачно 763 765 +0.2 96% +8.4° 1 км - - - -
Вторник, 13 Ноября
Время местн. Темп Ветер Видим Явления Облачность нижн/средн/верх Атм. давл. Влжн Точка росы ВНГО R Сост. почвы Tg s
Напр Скр Прв ур.ст ур.м изм
23:00 +9.3° З 1 4 4 км слабый ливневый дождь облачно 763 765 +0.5 95% +8.5° 1 км - - - -
20:00 +9.3° З 1 4 4 км слабый ливневый дождь облачно 763 765 +0.1 97% +8.8° 1 км 8 - - -
17:00 +9.2° З 1 3 4 км слабый непрерывный дождь облачно 763 765 +0.1 97% +8.7° 600 м - - - -
14:00 +10.2° Ю,Ю-З 1 2 4 км слабый непрерывный дождь облачно 763 765 -0.8 87% +8.1° - - - - -
11:00 +9.8° Ю,Ю-З 2 4 4 км дымка облачно 763 765 +0.4 86% +7.6° - - - - -
08:00 +8.5° Ю 2 5 4 км дымка {морось} облачно с прояснениями 763 765 -0.2 91% +7.1° - 0 Влажная (без луж) - -
05:00 +8.5° Ю 2 6 4 км дымка облачно 763 765 -0.6 90% +6.9° более 2.5 км - - - -
02:00 +8.6° Ю 2 5 4 км дымка облачно 764 766 -0.6 88% +6.8° - - - - -
Понедельник, 12 Ноября
Время местн. Темп Ветер Видим Явления Облачность нижн/средн/верх Атм. давл. Влжн Точка росы ВНГО R Сост. почвы Tg s
Напр Скр Прв ур.ст ур.м изм
23:00 +8.9° Ю 2 5 4 км дымка облачно 764 766 -0.5 88% +7° - - - - -
20:00 +8.3° Ю 2 5 4 км дымка облачно 765 767 -0.3 90% +6.8° - 0 - - -
17:00 +8.5° Ю,Ю-В 2 6 4 км дымка облачно 765 767 +0.2 88% +6.6° - - - - -
14:00 +9.1° Ю 3 5 10 км - преимущественно облачно 765 767 -0.4 85% +6.7° 600 м - - - -
11:00 +7.9° Ю 2 6 4 км дымка облачно 765 767 +0.8 90% +6.4° 600 м - - - -
08:00 +7.2° Ю,Ю-В 2 5 4 км дымка облачно 765 767 +0.4 93% +6.1° 300 м 0 Влажная (без луж) - -
05:00 +7.1° Ю 2 5 4 км дымка облачно 764 766 +0.5 92% +5.9° 600 м - - - -
02:00 +7.2° Ю,Ю-В 2 4 4 км дымка облачно 764 766 +0.6 90% +5.7° 600 м - - - -
Воскресенье, 11 Ноября
Время местн. Темп Ветер Видим Явления Облачность нижн/средн/верх Атм. давл. Влжн Точка росы ВНГО R Сост. почвы Tg s
Напр Скр Прв ур.ст ур.м изм
23:00 +6.6° Ю 3 6 4 км дымка облачно 763 765 +0.2 91% +5.2° 600 м - - - -
20:00 +5.9° Ю,Ю-В 2 4 4 км дымка облачно 763 765 +0.5 92% +4.7° 600 м 0 - - -
17:00 +5.6° Ю-В 3 7 4 км дымка облачно 762 764 +0.4 93% +4.6° 600 м - - - -